createdAt,value
2023-01-21T00:01:19.273Z,2.20
2023-01-21T00:03:47.404Z,2.40
2023-01-21T00:06:15.522Z,1.80
2023-01-21T00:08:44.054Z,2.00
2023-01-21T00:11:15.324Z,1.70
2023-01-21T00:13:44.726Z,1.70
2023-01-21T00:16:13.508Z,1.60
2023-01-21T00:18:41.950Z,1.90
2023-01-21T00:21:10.866Z,1.60
2023-01-21T00:23:38.963Z,1.70
2023-01-21T00:26:10.249Z,2.00
2023-01-21T00:28:40.172Z,1.60
2023-01-21T00:31:09.285Z,2.50
2023-01-21T00:33:38.258Z,1.80
2023-01-21T00:36:11.955Z,2.10
2023-01-21T00:38:40.669Z,5.00
2023-01-21T00:41:13.888Z,2.50
2023-01-21T00:43:43.422Z,2.60
2023-01-21T00:46:12.036Z,3.00
2023-01-21T00:48:40.624Z,3.50
2023-01-21T00:51:09.955Z,2.70
2023-01-21T00:53:42.141Z,3.80
2023-01-21T00:56:13.083Z,2.60
2023-01-21T00:58:43.540Z,2.50
2023-01-21T01:01:14.129Z,2.60
2023-01-21T01:03:42.592Z,2.50
2023-01-21T01:06:15.984Z,2.70
2023-01-21T01:08:45.678Z,2.60
2023-01-21T01:11:14.554Z,2.90
2023-01-21T01:13:43.835Z,2.20
2023-01-21T01:16:16.220Z,3.00
2023-01-21T01:18:44.330Z,2.20
2023-01-21T01:21:15.066Z,2.20
2023-01-21T01:23:44.342Z,2.30
2023-01-21T01:26:14.943Z,2.50
2023-01-21T01:28:43.459Z,2.90
2023-01-21T01:31:14.800Z,2.00
2023-01-21T01:33:43.409Z,2.40
2023-01-21T01:36:17.538Z,3.90
2023-01-21T01:38:46.167Z,6.10
2023-01-21T01:41:22.986Z,8.10
2023-01-21T01:43:55.467Z,8.20
2023-01-21T01:46:25.613Z,6.70
2023-01-21T01:49:16.900Z,8.30
2023-01-21T01:51:48.018Z,7.90
2023-01-21T01:54:21.063Z,9.60
2023-01-21T01:56:54.007Z,8.40
2023-01-21T01:59:22.396Z,8.70
2023-01-21T02:01:50.416Z,11.00
2023-01-21T02:04:23.281Z,10.30
2023-01-21T02:06:54.464Z,7.50
2023-01-21T02:09:23.491Z,8.20
2023-01-21T02:11:51.654Z,6.40
2023-01-21T02:14:19.694Z,6.80
2023-01-21T02:16:58.068Z,4.80
2023-01-21T02:19:41.698Z,8.20
2023-01-21T02:22:17.749Z,5.60
2023-01-21T02:25:04.370Z,6.90
2023-01-21T02:27:51.303Z,7.20
2023-01-21T02:30:28.543Z,6.20
2023-01-21T02:33:20.336Z,4.80
2023-01-21T02:36:15.657Z,4.60
2023-01-21T02:39:04.302Z,4.70
2023-01-21T02:42:14.164Z,4.50
2023-01-21T02:44:51.196Z,6.20
2023-01-21T02:47:34.557Z,4.90
2023-01-21T02:50:13.045Z,6.70
2023-01-21T02:52:43.595Z,3.70
2023-01-21T02:55:16.971Z,4.90
2023-01-21T02:57:53.645Z,3.60
2023-01-21T03:00:34.040Z,4.60
2023-01-21T03:03:25.491Z,4.80
2023-01-21T03:06:18.591Z,6.40
2023-01-21T03:08:57.785Z,3.90
2023-01-21T03:11:26.131Z,3.30
2023-01-21T03:14:19.917Z,3.00
2023-01-21T03:16:58.127Z,3.50
2023-01-21T03:19:43.297Z,2.60
2023-01-21T03:22:19.697Z,2.80
2023-01-21T03:24:51.827Z,2.60
2023-01-21T03:27:23.925Z,3.70
2023-01-21T03:29:59.554Z,2.20
2023-01-21T03:32:31.519Z,2.30
2023-01-21T03:35:01.783Z,2.20
2023-01-21T03:38:08.186Z,2.40
2023-01-21T03:43:10.563Z,2.10
2023-01-21T03:45:57.057Z,2.50
2023-01-21T03:48:48.403Z,2.70
2023-01-21T03:51:29.990Z,3.50
2023-01-21T03:53:59.804Z,2.40
2023-01-21T03:56:28.980Z,2.50
2023-01-21T03:58:57.096Z,2.60
2023-01-21T04:01:25.165Z,2.50
2023-01-21T04:03:53.223Z,2.90
2023-01-21T04:06:23.326Z,3.00
2023-01-21T04:08:51.417Z,3.20
2023-01-21T04:11:19.537Z,2.60
2023-01-21T04:13:47.551Z,2.60
2023-01-21T04:16:15.546Z,2.70
2023-01-21T04:18:43.647Z,3.10
2023-01-21T04:21:12.101Z,3.60
2023-01-21T04:23:41.320Z,2.60
2023-01-21T04:26:09.508Z,2.70
2023-01-21T04:28:37.625Z,2.90
2023-01-21T04:31:05.733Z,3.20
2023-01-21T04:33:33.936Z,3.50
2023-01-21T04:36:02.071Z,3.20
2023-01-21T04:38:30.193Z,2.90
2023-01-21T04:40:58.102Z,4.00
2023-01-21T04:43:26.123Z,3.20
2023-01-21T04:45:54.203Z,2.90
2023-01-21T04:48:23.287Z,3.40
2023-01-21T04:50:51.327Z,3.30
2023-01-21T04:53:19.278Z,3.00
2023-01-21T04:55:47.411Z,3.00
2023-01-21T04:58:15.525Z,3.40
2023-01-21T05:00:43.579Z,4.00
2023-01-21T05:03:12.115Z,4.00
2023-01-21T05:05:40.174Z,5.10
2023-01-21T05:08:08.175Z,4.50
2023-01-21T05:10:36.367Z,3.30
2023-01-21T05:13:04.658Z,3.50
2023-01-21T05:15:33.101Z,3.70
2023-01-21T05:18:01.552Z,3.10
2023-01-21T05:20:29.528Z,3.30
2023-01-21T05:22:58.125Z,4.00
2023-01-21T05:25:26.180Z,3.20
2023-01-21T05:27:55.168Z,3.10
2023-01-21T05:30:23.171Z,3.50
2023-01-21T05:32:54.879Z,3.70
2023-01-21T05:35:25.574Z,3.80
2023-01-21T05:37:53.654Z,3.40
2023-01-21T05:40:21.742Z,3.10
2023-01-21T05:42:49.789Z,3.10
2023-01-21T05:45:18.127Z,5.00
2023-01-21T05:47:46.085Z,3.30
2023-01-21T05:50:14.315Z,3.20
2023-01-21T05:52:42.716Z,2.90
2023-01-21T05:55:10.835Z,2.70
2023-01-21T05:57:38.812Z,3.00
2023-01-21T06:00:07.684Z,2.90
2023-01-21T06:02:35.720Z,3.20
2023-01-21T06:05:04.124Z,4.80
2023-01-21T06:07:32.341Z,3.90
2023-01-21T06:10:00.402Z,4.90
2023-01-21T06:12:29.813Z,3.10
2023-01-21T06:14:57.867Z,3.40
2023-01-21T06:17:26.353Z,3.60
2023-01-21T06:19:54.634Z,3.30
2023-01-21T06:22:22.818Z,4.40
2023-01-21T06:24:50.745Z,3.80
2023-01-21T06:27:18.801Z,3.40
2023-01-21T06:29:46.820Z,4.20
2023-01-21T06:32:14.829Z,3.70
2023-01-21T06:34:45.179Z,4.60
2023-01-21T06:37:15.662Z,5.20
2023-01-21T06:39:43.554Z,9.70
2023-01-21T06:42:11.777Z,4.20
2023-01-21T06:44:40.284Z,3.60
2023-01-21T06:47:08.379Z,3.70
2023-01-21T06:49:36.385Z,3.50
2023-01-21T06:52:04.716Z,3.50
2023-01-21T06:54:32.924Z,5.20
2023-01-21T06:57:01.957Z,4.90
2023-01-21T06:59:31.565Z,3.80
2023-01-21T07:01:59.814Z,5.30
2023-01-21T07:04:28.438Z,4.20
2023-01-21T07:06:56.398Z,5.80
2023-01-21T07:09:27.522Z,3.90
2023-01-21T07:11:55.727Z,4.30
2023-01-21T07:14:23.779Z,4.80
2023-01-21T07:16:51.704Z,5.00
2023-01-21T07:19:20.259Z,5.90
2023-01-21T07:21:48.426Z,8.60
2023-01-21T07:24:16.383Z,7.30
2023-01-21T07:26:44.550Z,5.70
2023-01-21T07:29:12.602Z,6.60
2023-01-21T07:31:40.862Z,7.10
2023-01-21T07:34:10.028Z,7.40
2023-01-21T07:36:37.984Z,7.00
2023-01-21T07:39:06.136Z,8.60
2023-01-21T07:41:34.421Z,7.20
2023-01-21T07:44:04.600Z,7.90
2023-01-21T07:46:33.337Z,6.40
2023-01-21T07:49:01.799Z,7.10
2023-01-21T07:51:29.922Z,7.20
2023-01-21T07:53:58.642Z,9.20
2023-01-21T07:56:27.335Z,8.70
2023-01-21T07:58:56.289Z,8.60
2023-01-21T08:01:28.668Z,5.90
2023-01-21T08:04:01.317Z,11.60
2023-01-21T08:06:29.257Z,7.30
2023-01-21T08:08:57.291Z,5.90
2023-01-21T08:11:25.303Z,5.40
2023-01-21T08:13:53.343Z,6.80
2023-01-21T08:16:21.919Z,4.90
2023-01-21T08:18:51.206Z,5.00
2023-01-21T08:21:21.032Z,6.00
2023-01-21T08:23:49.316Z,5.80
2023-01-21T08:26:17.401Z,6.00
2023-01-21T08:28:45.387Z,6.80
2023-01-21T08:31:14.348Z,5.80
2023-01-21T08:33:42.673Z,6.00
2023-01-21T08:36:10.899Z,5.20
2023-01-21T08:38:40.214Z,5.20
2023-01-21T08:41:08.414Z,6.70
2023-01-21T08:43:37.011Z,7.40
2023-01-21T08:46:05.697Z,5.90
2023-01-21T08:48:34.351Z,6.80
2023-01-21T08:51:02.432Z,5.80
2023-01-21T08:53:31.044Z,6.30
2023-01-21T08:56:01.171Z,8.40
2023-01-21T08:58:30.325Z,6.50
2023-01-21T09:00:59.818Z,5.10
2023-01-21T09:03:29.986Z,6.60
2023-01-21T09:06:02.280Z,8.10
2023-01-21T09:08:30.796Z,6.60
2023-01-21T09:11:01.901Z,8.50
2023-01-21T09:13:34.254Z,10.60
2023-01-21T09:16:07.258Z,9.40
2023-01-21T09:18:36.553Z,7.00
2023-01-21T09:21:06.437Z,5.90
2023-01-21T09:23:36.022Z,5.60
2023-01-21T09:26:05.537Z,6.10
2023-01-21T09:28:39.130Z,6.50
2023-01-21T09:31:10.499Z,5.80
2023-01-21T09:33:41.444Z,6.20
2023-01-21T09:36:14.419Z,5.80
2023-01-21T09:38:47.267Z,5.00
2023-01-21T09:41:40.416Z,6.00
2023-01-21T09:44:33.494Z,5.20
2023-01-21T09:47:33.932Z,5.60
2023-01-21T09:50:18.982Z,8.20
2023-01-21T09:52:51.460Z,7.00
2023-01-21T09:55:31.913Z,6.60
2023-01-21T09:58:03.782Z,9.50
2023-01-21T10:00:44.734Z,9.10
2023-01-21T10:03:50.322Z,10.20
2023-01-21T10:06:40.492Z,9.60
2023-01-21T10:09:26.765Z,7.90
2023-01-21T10:12:07.260Z,7.10
2023-01-21T10:14:59.266Z,7.60
2023-01-21T10:17:27.475Z,10.30
2023-01-21T10:20:06.090Z,7.00
2023-01-21T10:22:35.479Z,9.10
2023-01-21T10:25:18.551Z,7.00
2023-01-21T10:27:47.288Z,8.70
2023-01-21T10:30:22.974Z,9.20
2023-01-21T10:32:53.131Z,11.80
2023-01-21T10:35:36.688Z,10.00
2023-01-21T10:38:27.073Z,7.90
2023-01-21T10:41:11.354Z,8.90
2023-01-21T10:44:25.860Z,11.20
2023-01-21T10:47:14.620Z,8.80
2023-01-21T10:49:59.622Z,6.40
2023-01-21T10:52:45.345Z,8.50
2023-01-21T10:55:38.454Z,9.20
2023-01-21T10:58:41.421Z,11.30
2023-01-21T11:01:35.587Z,8.40
2023-01-21T11:04:23.394Z,9.10
2023-01-21T11:07:00.472Z,8.70
2023-01-21T11:09:35.066Z,7.90
2023-01-21T11:12:03.508Z,8.40
2023-01-21T11:14:33.779Z,7.20
2023-01-21T11:17:03.048Z,8.40
2023-01-21T11:19:31.609Z,8.70
2023-01-21T11:22:18.268Z,5.70
2023-01-21T11:24:51.987Z,6.20
2023-01-21T11:27:21.008Z,5.50
2023-01-21T11:29:50.432Z,7.20
2023-01-21T11:32:28.922Z,9.40
2023-01-21T11:35:13.493Z,7.60
2023-01-21T11:37:46.590Z,11.90
2023-01-21T11:40:24.163Z,10.80
2023-01-21T11:42:57.265Z,8.80
2023-01-21T11:45:37.031Z,7.80
2023-01-21T11:48:21.320Z,7.70
2023-01-21T11:50:49.595Z,6.60
2023-01-21T11:53:19.867Z,5.60
2023-01-21T11:55:54.358Z,5.70
2023-01-21T11:58:35.835Z,6.90
2023-01-21T12:01:08.955Z,7.40
2023-01-21T12:03:48.598Z,7.20
2023-01-21T12:06:27.696Z,14.10
2023-01-21T12:09:00.395Z,12.60
2023-01-21T12:11:31.066Z,7.80
2023-01-21T12:14:33.810Z,7.90
2023-01-21T12:17:29.785Z,6.70
2023-01-21T12:23:01.297Z,5.60
2023-01-21T12:26:03.191Z,6.50
2023-01-21T12:31:42.844Z,12.60
2023-01-21T12:34:37.177Z,11.20
2023-01-21T12:37:20.794Z,7.00
2023-01-21T12:39:52.044Z,11.70
2023-01-21T12:42:32.855Z,7.90
2023-01-21T12:45:05.837Z,11.90
2023-01-21T12:48:04.707Z,8.30
2023-01-21T12:50:54.539Z,7.80
2023-01-21T12:53:39.195Z,8.10
2023-01-21T12:56:13.508Z,11.40
2023-01-21T12:58:59.244Z,9.10
2023-01-21T13:04:47.165Z,10.10
2023-01-21T13:07:22.064Z,9.90
2023-01-21T13:09:58.607Z,7.80
2023-01-21T13:12:32.842Z,13.80
2023-01-21T13:15:21.661Z,7.10
2023-01-21T13:17:55.341Z,9.30
2023-01-21T13:20:24.993Z,7.90
2023-01-21T13:23:05.023Z,14.10
2023-01-21T13:25:51.185Z,10.30
2023-01-21T13:28:45.325Z,7.20
2023-01-21T13:31:19.273Z,10.50
2023-01-21T13:34:02.176Z,8.90
2023-01-21T13:36:47.445Z,12.40
2023-01-21T13:40:09.801Z,8.20
2023-01-21T13:42:58.011Z,8.20
2023-01-21T13:45:43.887Z,8.00
2023-01-21T13:48:35.547Z,9.30
2023-01-21T13:51:18.145Z,9.50
2023-01-21T13:54:24.412Z,8.80
2023-01-21T13:57:04.340Z,9.50
2023-01-21T13:59:40.088Z,12.60
2023-01-21T14:02:24.657Z,9.80
2023-01-21T14:05:11.196Z,11.50
2023-01-21T14:07:42.242Z,13.30
2023-01-21T14:10:19.989Z,10.20
2023-01-21T14:13:06.529Z,7.60
2023-01-21T14:16:15.609Z,9.80
2023-01-21T14:18:59.051Z,9.00
2023-01-21T14:21:42.868Z,9.30
2023-01-21T14:24:52.713Z,9.30
2023-01-21T14:27:20.743Z,9.50
2023-01-21T14:30:04.914Z,9.20
2023-01-21T14:32:42.440Z,10.00
2023-01-21T14:35:29.948Z,9.30
2023-01-21T14:38:36.930Z,9.20
2023-01-21T14:41:10.829Z,9.20
2023-01-21T14:43:40.565Z,8.90
2023-01-21T14:47:05.230Z,9.90
2023-01-21T14:49:47.684Z,21.90
2023-01-21T14:52:19.191Z,11.50
2023-01-21T14:54:48.842Z,8.50
2023-01-21T14:57:41.602Z,10.20
2023-01-21T15:00:39.122Z,8.10
2023-01-21T15:03:19.452Z,12.10
2023-01-21T15:05:52.579Z,10.80
2023-01-21T15:08:25.529Z,11.20
2023-01-21T15:11:05.475Z,16.30
2023-01-21T15:13:33.549Z,12.60
2023-01-21T15:16:27.252Z,11.00
2023-01-21T15:19:07.987Z,12.10
2023-01-21T15:22:01.334Z,14.50
2023-01-21T15:24:35.858Z,12.00
2023-01-21T15:27:20.467Z,10.70
2023-01-21T15:29:58.543Z,11.90
2023-01-21T15:32:36.848Z,10.30
2023-01-21T15:35:33.636Z,10.70
2023-01-21T15:38:10.392Z,11.20
2023-01-21T15:40:51.027Z,12.40
2023-01-21T15:43:40.263Z,16.40
2023-01-21T15:46:27.310Z,13.90
2023-01-21T15:49:40.687Z,11.10
2023-01-21T15:52:37.050Z,11.30
2023-01-21T15:55:39.181Z,11.00
2023-01-21T15:58:11.811Z,11.10
2023-01-21T16:00:50.560Z,11.00
2023-01-21T16:03:35.476Z,12.90
2023-01-21T16:06:33.093Z,11.80
2023-01-21T16:09:07.683Z,11.50
2023-01-21T16:11:44.644Z,11.40
2023-01-21T16:14:37.979Z,13.50
2023-01-21T16:17:18.244Z,11.20
2023-01-21T16:19:52.153Z,14.90
2023-01-21T16:22:29.845Z,11.40
2023-01-21T16:25:03.034Z,12.60
2023-01-21T16:27:32.454Z,13.60
2023-01-21T16:30:05.776Z,16.90
2023-01-21T16:32:34.958Z,16.20
2023-01-21T16:35:03.313Z,19.90
2023-01-21T16:37:32.921Z,19.60
2023-01-21T16:40:11.653Z,13.10
2023-01-21T16:42:44.220Z,18.80
2023-01-21T16:45:22.985Z,15.40
2023-01-21T16:47:57.311Z,14.90
2023-01-21T16:50:33.020Z,13.70
2023-01-21T16:53:08.208Z,16.50
2023-01-21T16:55:44.937Z,16.40
2023-01-21T16:58:46.795Z,14.90
2023-01-21T17:01:17.132Z,14.40
2023-01-21T17:03:47.766Z,13.90
2023-01-21T17:06:21.850Z,15.10
2023-01-21T17:08:56.803Z,16.30
2023-01-21T17:11:24.983Z,24.20
2023-01-21T17:13:54.060Z,26.10
2023-01-21T17:16:27.759Z,28.40
2023-01-21T17:19:03.852Z,32.10
2023-01-21T17:21:44.750Z,29.60
2023-01-21T17:24:34.363Z,31.50
2023-01-21T17:27:08.583Z,39.40
2023-01-21T17:29:38.994Z,29.80
2023-01-21T17:32:22.337Z,28.50
2023-01-21T17:35:12.497Z,35.30
2023-01-21T17:37:44.266Z,37.30
2023-01-21T17:40:34.339Z,38.20
2023-01-21T17:43:11.302Z,29.60
2023-01-21T17:45:45.024Z,30.40
2023-01-21T17:48:35.862Z,26.90
2023-01-21T17:51:16.408Z,29.00
2023-01-21T17:53:56.166Z,27.70
2023-01-21T17:56:37.672Z,27.90
2023-01-21T17:59:37.814Z,28.90
2023-01-21T18:02:22.193Z,28.40
2023-01-21T18:04:50.607Z,28.50
2023-01-21T18:07:32.692Z,28.20
2023-01-21T18:10:09.938Z,25.20
2023-01-21T18:12:38.249Z,26.80
2023-01-21T18:15:07.188Z,31.30
2023-01-21T18:17:37.754Z,29.20
2023-01-21T18:20:15.366Z,29.90
2023-01-21T18:22:43.970Z,27.50
2023-01-21T18:25:15.360Z,24.20
2023-01-21T18:27:47.040Z,25.40
2023-01-21T18:30:19.617Z,23.60
2023-01-21T18:32:49.788Z,26.30
2023-01-21T18:35:22.648Z,26.80
2023-01-21T18:37:50.737Z,27.50
2023-01-21T18:40:22.683Z,26.10
2023-01-21T18:42:55.491Z,27.20
2023-01-21T18:45:28.539Z,27.40
2023-01-21T18:47:58.848Z,28.10
2023-01-21T18:50:30.160Z,29.80
2023-01-21T18:52:58.672Z,38.30
2023-01-21T18:55:29.193Z,44.10
2023-01-21T18:57:57.340Z,44.60
2023-01-21T19:00:32.713Z,51.40
2023-01-21T19:03:01.748Z,51.80
2023-01-21T19:05:34.598Z,50.30
2023-01-21T19:08:03.035Z,46.50
2023-01-21T19:10:31.098Z,44.80
2023-01-21T19:12:59.157Z,48.60
2023-01-21T19:15:28.809Z,46.80
2023-01-21T19:17:57.716Z,47.90
2023-01-21T19:20:41.000Z,47.80
2023-01-21T19:23:17.439Z,47.60
2023-01-21T19:25:54.718Z,46.90
2023-01-21T19:28:23.902Z,46.00
2023-01-21T19:30:55.565Z,44.50
2023-01-21T19:33:24.629Z,38.10
2023-01-21T19:36:00.002Z,33.20
2023-01-21T19:38:28.393Z,33.50
2023-01-21T19:40:56.739Z,32.70
2023-01-21T19:43:25.151Z,35.40
2023-01-21T19:45:53.572Z,35.90
2023-01-21T19:48:24.969Z,33.60
2023-01-21T19:50:52.954Z,40.10
2023-01-21T19:53:22.375Z,46.30
2023-01-21T19:55:51.106Z,57.60
2023-01-21T19:58:25.375Z,56.40
2023-01-21T20:00:54.279Z,54.30
2023-01-21T20:03:24.558Z,56.90
2023-01-21T20:05:55.358Z,57.90
2023-01-21T20:08:26.797Z,57.60
2023-01-21T20:10:55.084Z,55.50
2023-01-21T20:13:23.623Z,53.70
2023-01-21T20:15:52.624Z,59.70
2023-01-21T20:18:26.272Z,52.60
2023-01-21T20:20:54.646Z,40.10
2023-01-21T20:23:23.883Z,44.10
2023-01-21T20:25:55.278Z,41.30
2023-01-21T20:28:26.675Z,35.20
2023-01-21T20:30:56.411Z,33.00
2023-01-21T20:33:26.521Z,32.60
2023-01-21T20:35:56.621Z,31.40
2023-01-21T20:38:35.978Z,29.70
2023-01-21T20:41:05.591Z,28.90
2023-01-21T20:43:34.347Z,29.30
2023-01-21T20:46:06.617Z,30.90
2023-01-21T20:48:41.530Z,33.60
2023-01-21T20:51:10.958Z,33.50
2023-01-21T20:53:39.460Z,32.40
2023-01-21T20:56:29.100Z,36.00
2023-01-21T20:58:58.321Z,38.20
2023-01-21T21:01:29.520Z,33.10
2023-01-21T21:03:57.678Z,33.50
2023-01-21T21:06:29.450Z,33.50
2023-01-21T21:08:58.419Z,31.20
2023-01-21T21:11:26.369Z,31.80
2023-01-21T21:13:54.637Z,31.80
2023-01-21T21:16:30.562Z,30.20
2023-01-21T21:19:00.751Z,30.20
2023-01-21T21:21:28.907Z,32.00
2023-01-21T21:23:56.926Z,31.00
2023-01-21T21:26:30.233Z,33.10
2023-01-21T21:28:58.333Z,31.80
2023-01-21T21:31:32.000Z,29.90
2023-01-21T21:34:00.524Z,30.90
2023-01-21T21:36:30.000Z,41.80
2023-01-21T21:39:00.217Z,46.30
2023-01-21T21:41:46.913Z,48.90
2023-01-21T21:44:15.017Z,52.50
2023-01-21T21:47:02.524Z,50.50
2023-01-21T21:49:30.606Z,47.10
2023-01-21T21:52:00.449Z,47.10
2023-01-21T21:54:31.271Z,48.00
2023-01-21T21:56:59.434Z,51.50
2023-01-21T21:59:27.369Z,53.50
2023-01-21T22:01:55.706Z,53.30
2023-01-21T22:04:24.913Z,52.80
2023-01-21T22:06:58.297Z,41.70
2023-01-21T22:09:26.289Z,43.30
2023-01-21T22:11:54.454Z,44.70
2023-01-21T22:14:22.517Z,42.20
2023-01-21T22:16:51.575Z,43.40
2023-01-21T22:19:19.772Z,33.50
2023-01-21T22:21:47.754Z,31.70
2023-01-21T22:24:15.854Z,29.60
2023-01-21T22:26:43.899Z,27.70
2023-01-21T22:29:12.790Z,32.10
2023-01-21T22:31:41.045Z,28.90
2023-01-21T22:34:11.265Z,29.80
2023-01-21T22:36:40.118Z,27.20
2023-01-21T22:39:08.742Z,31.20
2023-01-21T22:41:36.785Z,46.40
2023-01-21T22:44:05.227Z,49.70
2023-01-21T22:46:34.297Z,49.30
2023-01-21T22:49:02.345Z,48.40
2023-01-21T22:51:30.587Z,55.80
2023-01-21T22:54:01.394Z,51.60
2023-01-21T22:56:49.496Z,56.00
2023-01-21T22:59:17.494Z,52.70
2023-01-21T23:01:45.618Z,53.10
2023-01-21T23:04:14.871Z,47.50
2023-01-21T23:06:44.747Z,49.10
2023-01-21T23:09:15.472Z,47.10
2023-01-21T23:11:45.210Z,45.30
2023-01-21T23:14:13.403Z,54.60
2023-01-21T23:16:41.506Z,51.40
2023-01-21T23:19:09.591Z,53.10
2023-01-21T23:21:38.508Z,53.90
2023-01-21T23:24:07.463Z,52.00
2023-01-21T23:26:35.779Z,58.20
2023-01-21T23:29:04.800Z,48.10
2023-01-21T23:31:32.854Z,46.20
2023-01-21T23:34:00.873Z,47.80
2023-01-21T23:36:30.223Z,46.40
2023-01-21T23:38:58.283Z,50.90
2023-01-21T23:41:27.028Z,54.50
2023-01-21T23:43:59.702Z,54.90
2023-01-21T23:46:27.973Z,52.80
2023-01-21T23:48:55.962Z,50.80
2023-01-21T23:51:23.952Z,53.40
2023-01-21T23:53:51.883Z,51.10
2023-01-21T23:56:22.042Z,56.20
2023-01-21T23:58:50.963Z,54.30
